Tweed New Haven Airport
KHVN : now visible

Airfield :











YOU CAN JOIN US ON...

 
LOGIN :

Register | Disclaimer

   EN    FR    IT 

 









Legend :    VFR   Marginal VFR   IFR   Intensive IFR   Very Intensive IFR
Visi :
Ceiling :
>= 8 km
>= 3000ft
5 to 8 km
1000 to 3000 ft
1500m to 5 km
500 to 1000 ft
800 to 1500m
200 to 500 ft
< 800m
< 200 ft
Symbols :   Thunderstorms  Fog  Heavy snow  Heavy precipitations  Wind > 20 kt






- Airport Elevation : 12 ft
- IATA code : HVN


KHVN - Tweed New Haven

CURRENT METAR :
  • 041957Z 18033G47KT 2SM BR OVC010 A2960 RMK AO2 $

EXPIRED METARs :
  • 041953Z 18032G49KT 2SM BR OVC010 A2960 RMK AO2 SLP025 $
  • 041904Z 18030G47KT 2SM BR OVC010 A2964 RMK AO2 $
  • 041900Z A2964 RMK AO2 $
  • 041853Z 17027G43KT 2SM BR OVC020 A2964 RMK AO2 PK WND 13048/1817 RAE21 SLP038 P0004 $
  • 041757Z 12021G34KT 2SM R02/6000VP6000FT -RA BR SCT022 BKN031 OVC037 27/24 A2969 RMK AO2 PK WND 13034/1754 PRESFR P0002 T02670244

TAF N/A
KZBW FIR / North America



MET'MAP, your aeronautical weather chart ! - Copyright ORBIFLY December 2007 - Disclaimer

ORBIFLY MET'MAP TEAM :

Programming & Development : Alexandra Zaïnal
Concept & original design : Baudouin d'Aumeries
Assistance for programming : Marc-Olivier Méhu
Technical & hardware support : Manuel Goepfert

Contact : metmap@orbifly.com




SOURCES & CREDITS :

   NOAA       Earth
Advisory